createdAt,value
2022-08-16T00:02:55.524Z,20.28
2022-08-16T00:05:58.692Z,20.11
2022-08-16T00:09:01.643Z,19.88
2022-08-16T00:12:05.705Z,19.76
2022-08-16T00:15:17.213Z,19.75
2022-08-16T00:18:22.329Z,19.58
2022-08-16T00:21:32.800Z,19.45
2022-08-16T00:24:35.465Z,19.39
2022-08-16T00:27:38.502Z,19.50
2022-08-16T00:30:42.694Z,19.64
2022-08-16T00:33:50.113Z,19.72
2022-08-16T00:36:55.974Z,19.74
2022-08-16T00:39:59.039Z,19.76
2022-08-16T00:43:02.212Z,19.69
2022-08-16T00:46:32.845Z,19.57
2022-08-16T00:49:44.882Z,19.42
2022-08-16T00:52:59.331Z,19.36
2022-08-16T00:56:05.439Z,19.28
2022-08-16T00:59:10.469Z,19.29
2022-08-16T01:02:31.583Z,19.19
2022-08-16T01:05:36.677Z,19.15
2022-08-16T01:08:42.054Z,19.15
2022-08-16T01:11:53.758Z,19.09
2022-08-16T01:14:59.939Z,19.17
2022-08-16T01:18:05.829Z,19.09
2022-08-16T01:21:22.408Z,19.03
2022-08-16T01:24:45.296Z,19.00
2022-08-16T01:27:54.451Z,18.95
2022-08-16T01:30:58.248Z,18.93
2022-08-16T01:34:00.973Z,18.82
2022-08-16T01:37:09.335Z,18.72
2022-08-16T01:40:15.429Z,18.72
2022-08-16T01:43:18.521Z,18.67
2022-08-16T01:46:37.228Z,18.65
2022-08-16T01:50:43.608Z,18.77
2022-08-16T01:53:07.335Z,18.68
2022-08-16T01:56:23.349Z,18.77
2022-08-16T01:59:28.451Z,18.74
2022-08-16T02:02:31.167Z,18.62
2022-08-16T02:05:34.845Z,18.61
2022-08-16T02:08:37.761Z,18.52
2022-08-16T02:11:48.643Z,18.64
2022-08-16T02:14:55.777Z,18.72
2022-08-16T02:18:01.423Z,18.79
2022-08-16T02:21:05.757Z,19.01
2022-08-16T02:24:17.610Z,19.09
2022-08-16T02:27:32.617Z,19.23
2022-08-16T02:30:36.961Z,19.28
2022-08-16T02:33:50.234Z,19.32
2022-08-16T02:36:53.538Z,19.37
2022-08-16T02:39:57.730Z,19.27
2022-08-16T02:43:26.721Z,19.27
2022-08-16T02:46:33.654Z,19.25
2022-08-16T02:50:30.577Z,19.23
2022-08-16T02:52:59.706Z,19.06
2022-08-16T02:56:02.443Z,18.87
2022-08-16T02:59:11.611Z,18.86
2022-08-16T03:02:17.226Z,18.77
2022-08-16T03:05:19.889Z,18.75
2022-08-16T03:08:49.711Z,18.83
2022-08-16T03:11:47.675Z,19.03
2022-08-16T03:14:51.689Z,18.98
2022-08-16T03:17:54.799Z,19.01
2022-08-16T03:20:59.740Z,18.80
2022-08-16T03:24:03.437Z,18.66
2022-08-16T03:27:06.430Z,18.48
2022-08-16T03:30:17.455Z,18.41
2022-08-16T03:33:20.906Z,18.28
2022-08-16T03:36:30.864Z,18.30
2022-08-16T03:39:34.064Z,18.30
2022-08-16T03:43:00.440Z,18.35
2022-08-16T03:46:10.755Z,18.36
2022-08-16T03:49:13.826Z,18.35
2022-08-16T03:52:16.623Z,18.34
2022-08-16T03:55:23.260Z,18.28
2022-08-16T03:58:36.925Z,18.21
2022-08-16T04:01:41.381Z,18.23
2022-08-16T04:04:44.418Z,18.20
2022-08-16T04:07:47.025Z,18.20
2022-08-16T04:10:55.381Z,18.18
2022-08-16T04:14:31.011Z,18.28
2022-08-16T04:17:24.822Z,18.31
2022-08-16T04:20:33.744Z,18.29
2022-08-16T04:23:38.824Z,18.23
2022-08-16T04:26:42.588Z,18.28
2022-08-16T04:29:49.091Z,18.42
2022-08-16T04:32:57.136Z,18.54
2022-08-16T04:36:03.823Z,18.61
2022-08-16T04:39:07.826Z,18.75
2022-08-16T04:42:11.677Z,18.85
2022-08-16T04:45:14.803Z,18.96
2022-08-16T04:48:28.459Z,19.16
2022-08-16T04:51:36.285Z,19.31
2022-08-16T04:54:40.567Z,19.44
2022-08-16T04:57:53.281Z,19.52
2022-08-16T05:00:56.637Z,19.62
2022-08-16T05:04:01.831Z,19.82
2022-08-16T05:07:04.997Z,19.95
2022-08-16T05:10:19.642Z,20.01
2022-08-16T05:13:39.935Z,20.04
2022-08-16T05:16:44.636Z,20.12
2022-08-16T05:19:57.224Z,20.21
2022-08-16T05:23:01.147Z,20.37
2022-08-16T05:26:03.954Z,20.47
2022-08-16T05:29:11.143Z,20.59
2022-08-16T05:32:34.129Z,20.74
2022-08-16T05:35:40.755Z,20.60
2022-08-16T05:38:45.306Z,20.61
2022-08-16T05:41:52.176Z,20.70
2022-08-16T05:44:55.170Z,20.97
2022-08-16T05:48:01.703Z,21.07
2022-08-16T05:51:06.041Z,21.22
2022-08-16T05:54:14.038Z,21.38
2022-08-16T05:57:18.120Z,21.57
2022-08-16T06:00:22.694Z,21.59
2022-08-16T06:03:25.938Z,21.44
2022-08-16T06:06:33.751Z,21.37
2022-08-16T06:09:43.619Z,21.28
2022-08-16T06:12:47.286Z,21.13
2022-08-16T06:15:55.490Z,21.08
2022-08-16T06:18:58.943Z,20.94
2022-08-16T06:22:08.922Z,21.01
2022-08-16T06:25:36.107Z,20.96
2022-08-16T06:28:42.959Z,20.93
2022-08-16T06:31:50.438Z,21.09
2022-08-16T06:34:55.535Z,21.39
2022-08-16T06:38:01.923Z,21.42
2022-08-16T06:41:13.572Z,21.36
2022-08-16T06:44:21.035Z,21.56
2022-08-16T06:47:53.523Z,21.82
2022-08-16T06:50:51.949Z,21.99
2022-08-16T06:53:56.039Z,22.13
2022-08-16T06:56:59.545Z,22.30
2022-08-16T07:00:02.322Z,22.45
2022-08-16T07:03:27.690Z,22.53
2022-08-16T07:06:28.944Z,22.69
2022-08-16T07:09:33.323Z,22.93
2022-08-16T07:12:47.299Z,23.12
2022-08-16T07:16:01.770Z,23.18
2022-08-16T07:19:04.511Z,23.36
2022-08-16T07:22:07.258Z,23.54
2022-08-16T07:25:31.359Z,23.43
2022-08-16T07:28:35.475Z,23.67
2022-08-16T07:31:38.453Z,23.90
2022-08-16T07:34:48.179Z,23.91
2022-08-16T07:37:51.593Z,24.02
2022-08-16T07:41:00.373Z,24.08
2022-08-16T07:44:16.586Z,24.15
2022-08-16T07:47:20.197Z,24.41
2022-08-16T07:50:57.729Z,24.67
2022-08-16T07:54:09.204Z,24.86
2022-08-16T07:57:14.671Z,25.04
2022-08-16T08:00:21.916Z,25.49
2022-08-16T08:03:35.964Z,25.61
2022-08-16T08:06:42.489Z,25.95
2022-08-16T08:09:45.937Z,26.43
2022-08-16T08:12:50.812Z,26.97
2022-08-16T08:15:58.045Z,27.11
2022-08-16T08:19:02.812Z,27.74
2022-08-16T08:22:06.818Z,28.46
2022-08-16T08:25:10.249Z,28.64
2022-08-16T08:28:17.705Z,28.57
2022-08-16T08:31:20.376Z,28.38
2022-08-16T08:34:23.790Z,29.03
2022-08-16T08:37:27.676Z,28.72
2022-08-16T08:40:50.706Z,28.31
2022-08-16T08:43:55.104Z,28.01
2022-08-16T08:47:00.329Z,27.87
2022-08-16T08:50:05.402Z,27.43
2022-08-16T08:53:08.577Z,27.58
2022-08-16T08:56:22.540Z,27.78
2022-08-16T08:59:27.882Z,27.93
2022-08-16T09:02:31.043Z,27.92
2022-08-16T09:05:35.721Z,27.79
2022-08-16T09:08:39.868Z,27.50
2022-08-16T09:11:58.341Z,27.64
2022-08-16T09:15:11.558Z,27.67
2022-08-16T09:18:25.114Z,28.34
2022-08-16T09:21:31.299Z,28.65
2022-08-16T09:24:51.874Z,28.59
2022-08-16T09:27:57.666Z,29.03
2022-08-16T09:31:07.238Z,28.95
2022-08-16T09:34:19.240Z,29.01
2022-08-16T09:37:29.794Z,29.83
2022-08-16T09:40:43.833Z,30.18
2022-08-16T09:43:58.105Z,30.12
2022-08-16T09:47:10.368Z,30.32
2022-08-16T09:50:14.596Z,30.70
2022-08-16T09:53:26.757Z,30.78
2022-08-16T09:56:32.175Z,30.91
2022-08-16T09:59:38.367Z,29.91
2022-08-16T10:02:44.473Z,29.05
2022-08-16T10:05:51.651Z,28.50
2022-08-16T10:09:05.571Z,28.45
2022-08-16T10:12:42.554Z,28.46
2022-08-16T10:15:55.504Z,28.53
2022-08-16T10:19:06.646Z,28.38
2022-08-16T10:22:12.698Z,28.52
2022-08-16T10:27:16.170Z,29.16
2022-08-16T10:28:42.128Z,29.27
2022-08-16T10:31:46.748Z,29.65
2022-08-16T10:34:58.005Z,30.48
2022-08-16T10:38:01.096Z,31.01
2022-08-16T10:41:04.227Z,31.38
2022-08-16T10:44:09.529Z,31.75
2022-08-16T10:47:12.803Z,32.43
2022-08-16T10:50:18.963Z,32.56
2022-08-16T10:53:23.018Z,32.95
2022-08-16T10:56:52.266Z,33.11
2022-08-16T10:59:53.227Z,33.21
2022-08-16T11:03:01.795Z,32.37
2022-08-16T11:06:15.411Z,32.58
2022-08-16T11:09:25.256Z,32.03
2022-08-16T11:12:31.485Z,32.66
2022-08-16T11:15:35.258Z,32.66
2022-08-16T11:18:54.991Z,32.73
2022-08-16T11:22:39.691Z,31.61
2022-08-16T11:32:20.314Z,32.33
2022-08-16T11:39:00.080Z,31.69
2022-08-16T11:42:03.280Z,32.10
2022-08-16T11:45:25.799Z,31.89
2022-08-16T11:48:33.326Z,31.64
2022-08-16T11:51:35.938Z,30.43
2022-08-16T11:54:40.747Z,30.32
2022-08-16T11:57:43.671Z,29.99
2022-08-16T12:00:51.709Z,30.13
2022-08-16T12:03:56.987Z,30.57
2022-08-16T12:06:59.958Z,30.70
2022-08-16T12:10:06.515Z,30.82
2022-08-16T12:13:11.455Z,30.61
2022-08-16T12:16:17.661Z,31.09
2022-08-16T12:19:33.947Z,31.48
2022-08-16T12:22:38.582Z,31.84
2022-08-16T12:25:42.690Z,31.27
2022-08-16T12:28:56.241Z,31.77
2022-08-16T12:32:26.746Z,31.08
2022-08-16T12:35:22.695Z,31.67
2022-08-16T12:38:41.147Z,32.52
2022-08-16T12:41:49.490Z,33.26
2022-08-16T12:44:53.026Z,33.14
2022-08-16T12:48:33.474Z,33.43
2022-08-16T12:51:59.935Z,33.16
2022-08-16T12:55:01.310Z,34.94
2022-08-16T12:58:06.055Z,41.25
2022-08-16T13:01:17.517Z,45.41
2022-08-16T13:04:24.932Z,48.19
2022-08-16T13:07:28.115Z,44.54
2022-08-16T13:10:41.333Z,44.64
2022-08-16T13:13:47.276Z,45.57
2022-08-16T13:16:57.565Z,43.86
2022-08-16T13:20:09.435Z,47.19
2022-08-16T13:23:14.460Z,49.40
2022-08-16T13:26:20.403Z,48.88
2022-08-16T13:29:25.027Z,50.80
2022-08-16T13:32:42.493Z,53.07
2022-08-16T13:35:56.140Z,52.56
2022-08-16T13:39:00.937Z,53.03
2022-08-16T13:42:04.311Z,50.38
2022-08-16T13:45:09.965Z,51.64
2022-08-16T13:48:21.944Z,53.58
2022-08-16T13:51:30.641Z,53.80
2022-08-16T13:54:33.612Z,53.85
2022-08-16T13:57:53.061Z,55.58
2022-08-16T14:01:01.090Z,54.72
2022-08-16T14:04:05.682Z,53.09
2022-08-16T14:07:10.289Z,52.84
2022-08-16T14:10:15.298Z,54.01
2022-08-16T14:13:21.104Z,54.97
2022-08-16T14:16:33.670Z,55.82
2022-08-16T14:19:37.270Z,54.15
2022-08-16T14:22:54.514Z,54.80
2022-08-16T14:25:57.634Z,54.39
2022-08-16T14:29:03.800Z,52.61
2022-08-16T14:32:09.295Z,55.08
2022-08-16T14:35:18.449Z,54.16
2022-08-16T14:38:23.824Z,52.18
2022-08-16T14:41:27.487Z,51.33
2022-08-16T14:44:30.889Z,52.31
2022-08-16T14:47:37.192Z,52.79
2022-08-16T14:50:40.106Z,53.44
2022-08-16T14:53:49.638Z,55.86
2022-08-16T14:56:55.453Z,57.11
2022-08-16T15:00:04.684Z,56.17
2022-08-16T15:03:11.539Z,54.77
2022-08-16T15:06:14.672Z,53.50
2022-08-16T15:09:19.425Z,53.85
2022-08-16T15:12:33.421Z,55.16
2022-08-16T15:15:41.184Z,56.10
2022-08-16T15:18:46.700Z,55.52
2022-08-16T15:21:53.824Z,52.35
2022-08-16T15:24:59.349Z,51.88
2022-08-16T15:28:05.349Z,52.34
2022-08-16T15:31:13.066Z,51.22
2022-08-16T15:34:21.851Z,51.52
2022-08-16T15:37:42.668Z,53.85
2022-08-16T15:40:56.684Z,52.10
2022-08-16T15:44:05.508Z,54.40
2022-08-16T15:47:15.683Z,54.60
2022-08-16T15:50:20.011Z,52.43
2022-08-16T15:53:24.846Z,50.22
2022-08-16T15:56:28.366Z,51.74
2022-08-16T15:59:34.837Z,52.01
2022-08-16T16:03:01.149Z,52.73
2022-08-16T16:06:05.629Z,53.89
2022-08-16T16:09:08.860Z,51.83
2022-08-16T16:12:41.883Z,51.53
2022-08-16T16:15:39.549Z,52.52
2022-08-16T16:18:42.651Z,52.42
2022-08-16T16:21:53.967Z,49.87
2022-08-16T16:24:57.496Z,49.29
2022-08-16T16:28:00.930Z,50.61
2022-08-16T16:31:05.727Z,50.11
2022-08-16T16:34:10.019Z,48.93
2022-08-16T16:37:15.832Z,47.40
2022-08-16T16:40:28.947Z,47.24
2022-08-16T16:43:36.210Z,47.44
2022-08-16T16:46:43.076Z,46.34
2022-08-16T16:49:46.635Z,46.90
2022-08-16T16:52:53.811Z,45.90
2022-08-16T16:55:56.510Z,45.31
2022-08-16T16:59:01.672Z,41.24
2022-08-16T17:02:38.881Z,37.63
2022-08-16T17:05:32.429Z,38.00
2022-08-16T17:08:37.849Z,36.96
2022-08-16T17:11:48.674Z,34.88
2022-08-16T17:14:58.439Z,33.84
2022-08-16T17:18:04.403Z,32.80
2022-08-16T17:21:29.108Z,32.34
2022-08-16T17:24:39.883Z,32.13
2022-08-16T17:27:43.598Z,31.84
2022-08-16T17:30:54.179Z,31.55
2022-08-16T17:33:59.145Z,31.18
2022-08-16T17:37:08.001Z,31.02
2022-08-16T17:40:19.231Z,30.81
2022-08-16T17:43:44.203Z,30.46
2022-08-16T17:46:51.909Z,30.22
2022-08-16T17:49:56.902Z,29.96
2022-08-16T17:53:00.023Z,29.72
2022-08-16T17:56:06.247Z,29.53
2022-08-16T17:59:09.190Z,29.38
2022-08-16T18:02:42.518Z,29.21
2022-08-16T18:05:35.750Z,29.00
2022-08-16T18:08:39.497Z,28.89
2022-08-16T18:11:44.622Z,28.73
2022-08-16T18:14:51.099Z,28.54
2022-08-16T18:17:55.686Z,28.34
2022-08-16T18:21:16.586Z,28.13
2022-08-16T18:24:20.060Z,27.89
2022-08-16T18:27:27.245Z,27.70
2022-08-16T18:30:30.859Z,27.55
2022-08-16T18:33:42.765Z,27.41
2022-08-16T18:36:46.764Z,27.23
2022-08-16T18:39:49.902Z,27.10
2022-08-16T18:42:57.864Z,26.96
2022-08-16T18:46:01.301Z,26.85
2022-08-16T18:49:04.617Z,26.71
2022-08-16T18:52:09.215Z,26.49
2022-08-16T18:55:13.832Z,26.28
2022-08-16T18:58:18.941Z,26.12
2022-08-16T19:01:22.380Z,25.99
2022-08-16T19:04:56.023Z,25.84
2022-08-16T19:07:48.429Z,25.61
2022-08-16T19:10:53.136Z,25.46
2022-08-16T19:13:59.077Z,25.35
2022-08-16T19:17:01.938Z,25.21
2022-08-16T19:20:10.504Z,25.05
2022-08-16T19:23:16.106Z,24.90
2022-08-16T19:26:25.992Z,24.82
2022-08-16T19:29:30.700Z,24.71
2022-08-16T19:32:34.140Z,24.64
2022-08-16T19:35:37.536Z,24.51
2022-08-16T19:38:42.163Z,24.39
2022-08-16T19:41:52.063Z,24.37
2022-08-16T19:45:01.856Z,24.28
2022-08-16T19:48:05.666Z,24.19
2022-08-16T19:51:08.431Z,24.07
2022-08-16T19:54:11.128Z,24.06
2022-08-16T19:57:14.296Z,23.98
2022-08-16T20:00:19.097Z,23.99
2022-08-16T20:03:23.972Z,23.90
2022-08-16T20:06:32.111Z,23.84
2022-08-16T20:09:42.261Z,23.80
2022-08-16T20:13:02.524Z,23.83
2022-08-16T20:16:08.868Z,23.67
2022-08-16T20:19:11.659Z,23.60
2022-08-16T20:22:51.774Z,23.51
2022-08-16T20:25:49.870Z,23.61
2022-08-16T20:28:54.811Z,23.57
2022-08-16T20:31:59.597Z,23.41
2022-08-16T20:35:03.310Z,23.24
2022-08-16T20:38:06.976Z,23.23
2022-08-16T20:41:10.054Z,23.16
2022-08-16T20:44:13.909Z,23.12
2022-08-16T20:47:18.010Z,23.10
2022-08-16T20:50:22.416Z,23.10
2022-08-16T20:53:25.128Z,22.96
2022-08-16T20:56:27.890Z,22.84
2022-08-16T20:59:30.907Z,22.84
2022-08-16T21:02:34.949Z,22.81
2022-08-16T21:05:40.884Z,22.81
2022-08-16T21:08:51.775Z,22.80
2022-08-16T21:11:57.587Z,22.65
2022-08-16T21:15:05.402Z,22.72
2022-08-16T21:18:09.472Z,22.62
2022-08-16T21:21:12.852Z,22.54
2022-08-16T21:24:16.045Z,22.48
2022-08-16T21:27:19.891Z,22.44
2022-08-16T21:30:31.058Z,22.31
2022-08-16T21:33:37.027Z,22.19
2022-08-16T21:36:39.855Z,22.24
2022-08-16T21:39:42.604Z,22.21
2022-08-16T21:42:45.417Z,22.11
2022-08-16T21:45:54.182Z,22.09
2022-08-16T21:48:59.987Z,22.12
2022-08-16T21:52:03.119Z,22.12
2022-08-16T21:55:07.727Z,22.08
2022-08-16T21:58:10.662Z,21.98
2022-08-16T22:01:13.627Z,21.89
2022-08-16T22:04:37.921Z,21.87
2022-08-16T22:07:40.678Z,21.80
2022-08-16T22:11:07.442Z,21.72
2022-08-16T22:14:06.963Z,21.69
2022-08-16T22:17:10.513Z,21.68
2022-08-16T22:20:14.561Z,21.64
2022-08-16T22:23:19.377Z,21.66
2022-08-16T22:26:29.943Z,21.65
2022-08-16T22:29:33.465Z,21.60
2022-08-16T22:32:39.677Z,21.52
2022-08-16T22:35:47.382Z,21.50
2022-08-16T22:38:56.527Z,21.44
2022-08-16T22:42:00.037Z,21.33
2022-08-16T22:45:06.931Z,21.23
2022-08-16T22:48:09.749Z,21.20
2022-08-16T22:51:14.020Z,21.24
2022-08-16T22:54:47.329Z,21.18
2022-08-16T22:57:39.511Z,21.17
2022-08-16T23:00:42.833Z,21.17
2022-08-16T23:03:45.752Z,21.15
2022-08-16T23:06:49.837Z,21.11
2022-08-16T23:09:52.686Z,21.03
2022-08-16T23:12:58.179Z,21.01
2022-08-16T23:16:11.071Z,20.93
2022-08-16T23:19:16.223Z,20.89
2022-08-16T23:22:24.630Z,20.91
2022-08-16T23:25:30.611Z,20.86
2022-08-16T23:28:33.485Z,20.75
2022-08-16T23:31:36.145Z,20.68
2022-08-16T23:34:38.997Z,20.68
2022-08-16T23:37:43.133Z,20.66
2022-08-16T23:40:46.313Z,20.66
2022-08-16T23:43:48.988Z,20.59
2022-08-16T23:46:51.829Z,20.56
2022-08-16T23:50:00.744Z,20.50
2022-08-16T23:53:09.991Z,20.47
2022-08-16T23:56:14.627Z,20.42
2022-08-16T23:59:17.355Z,20.32
